Terminal Aerodrome Forecast
Issued by NWS La Crosse, WI

Home | Current Version | Previous Version | Text Only | Print | Product List | Glossary On
Versions: 1 2 3 4 5 6 7 8 9 10 11 12 13 14 15 16 17 18 19 20 21 22 23 24 25 26 27 28 29 30 31 32 33 34 35 36 37 38 39 40 41 42 43 44
000
FTUS43 KARX 011720
TAFRST
TAF
KRST 011720Z 0118/0218 15010G18KT 5SM BR OVC007
     FM012000 16010KT P6SM OVC009
     FM020200 17005KT 4SM BR OVC006
     FM020500 VRB03KT 2SM BR OVC002
     FM020800 VRB03KT 1/2SM FG OVC001
     FM021500 VRB03KT 2SM BR OVC002=

USA.gov is the U.S. government's official web portal to all federal, state and local government web resources and services.